Hlavní strana
METAR-TAF:

METAR-TAF

Letiště :

Monte Cimone, Itálie

zeměpisná šířka: 44-12N, zeměpisná délka: 010-42E, výška: 2165 m

Aktuální stav počasí

Zpráva byla vytvořena před 1 hodinou a 3 minutami, v 03:55 UTC
Severoseverovýchodní vítr 4 kt
Teplota 10°C
Vlhkost vzduchu 50%
Tlak 1028 hPa
Viditelnost 10 km a více
Žádná oblačnost pod 1500 m, nevyskytují se cumulonimby.

METAR: LIVC 270355Z 03004KT CAVOK 10/M00 Q1028 RMK BKN BKN160 MON LIB VAL NIL VIS MIN 9999

Čas: 06:58 (04:58 UTC)


TAF: chybějící

Stav a předpovědi počasí z více než 4 000 letišť (zprávy METAR a TAF).

Červené a žluté tečky na mapě představují dostupné meteorologické stanice.

Když kurzor umístíte na tečku, zobrazí se název stanice.

Pak kliknutím zobrazíte stav a předpověď počasí.

Chcete-li změnit mapu, kliknutím na zelené tlačítko se znaménkem +mapu přiblížíte, kliknutím na zelené tlačítko se znaménkem – mapu oddálíte a kliknutím na zelené šipky přejdete na sousední mapy.


METAR-TAF: